createdAt,value
2019-02-23T00:01:00.380Z,9.20
2019-02-23T00:03:29.644Z,11.67
2019-02-23T00:05:58.675Z,10.37
2019-02-23T00:08:27.728Z,10.03
2019-02-23T00:10:56.723Z,10.70
2019-02-23T00:13:25.536Z,10.20
2019-02-23T00:15:54.288Z,11.67
2019-02-23T00:18:23.283Z,11.97
2019-02-23T00:20:52.107Z,9.97
2019-02-23T00:23:20.840Z,12.43
2019-02-23T00:25:49.861Z,10.40
2019-02-23T00:28:18.952Z,9.00
2019-02-23T00:30:47.677Z,9.60
2019-02-23T00:33:16.431Z,9.07
2019-02-23T00:35:45.437Z,13.27
2019-02-23T00:38:15.024Z,10.23
2019-02-23T00:40:43.746Z,9.30
2019-02-23T00:43:12.488Z,11.00
2019-02-23T00:45:41.232Z,10.73
2019-02-23T00:48:10.574Z,10.67
2019-02-23T00:50:39.318Z,9.20
2019-02-23T00:53:08.080Z,10.33
2019-02-23T00:55:37.060Z,9.70
2019-02-23T00:58:06.282Z,11.10
2019-02-23T01:00:35.176Z,10.60
2019-02-23T01:03:03.927Z,12.53
2019-02-23T01:05:33.537Z,13.17
2019-02-23T01:08:02.312Z,10.77
2019-02-23T01:10:31.131Z,10.53
2019-02-23T01:13:00.225Z,15.07
2019-02-23T01:15:29.076Z,10.87
2019-02-23T01:17:57.805Z,12.47
2019-02-23T01:20:26.538Z,13.43
2019-02-23T01:22:55.558Z,11.70
2019-02-23T01:25:24.372Z,11.30
2019-02-23T01:27:53.106Z,11.67
2019-02-23T01:30:21.834Z,12.03
2019-02-23T01:32:50.697Z,12.07
2019-02-23T01:35:19.537Z,11.87
2019-02-23T01:37:48.702Z,13.27
2019-02-23T01:40:17.440Z,13.27
2019-02-23T01:42:46.192Z,12.93
2019-02-23T01:45:15.260Z,13.87
2019-02-23T01:47:44.080Z,13.13
2019-02-23T01:50:13.823Z,12.43
2019-02-23T01:52:42.985Z,13.70
2019-02-23T01:55:12.045Z,11.93
2019-02-23T01:57:40.800Z,15.90
2019-02-23T02:00:12.434Z,14.27
2019-02-23T02:02:41.893Z,15.57
2019-02-23T02:05:11.111Z,13.53
2019-02-23T02:07:39.920Z,13.13
2019-02-23T02:10:10.253Z,12.83
2019-02-23T02:12:39.116Z,14.83
2019-02-23T02:15:10.704Z,14.07
2019-02-23T02:17:39.850Z,15.33
2019-02-23T02:20:11.253Z,17.00
2019-02-23T02:22:39.888Z,16.03
2019-02-23T02:25:09.434Z,14.47
2019-02-23T02:27:38.495Z,14.40
2019-02-23T02:30:08.976Z,14.87
2019-02-23T02:32:38.020Z,13.53
2019-02-23T02:35:07.763Z,13.80
2019-02-23T02:37:36.506Z,13.53
2019-02-23T02:40:05.512Z,13.80
2019-02-23T02:42:34.248Z,14.60
2019-02-23T02:45:02.997Z,13.47
2019-02-23T02:47:32.059Z,14.80
2019-02-23T02:50:01.478Z,11.83
2019-02-23T02:52:30.764Z,13.27
2019-02-23T02:54:59.502Z,13.53
2019-02-23T02:57:28.219Z,13.67
2019-02-23T02:59:56.959Z,13.60
2019-02-23T03:02:25.945Z,13.80
2019-02-23T03:04:54.677Z,13.40
2019-02-23T03:07:23.400Z,13.50
2019-02-23T03:09:52.670Z,12.97
2019-02-23T03:12:21.415Z,12.93
2019-02-23T03:14:50.479Z,13.73
2019-02-23T03:17:19.216Z,13.70
2019-02-23T03:19:47.947Z,13.30
2019-02-23T03:22:16.686Z,12.17
2019-02-23T03:24:46.146Z,13.30
2019-02-23T03:27:15.226Z,13.90
2019-02-23T03:29:43.995Z,15.67
2019-02-23T03:32:13.040Z,15.40
2019-02-23T03:34:42.102Z,16.53
2019-02-23T03:37:10.828Z,17.13
2019-02-23T03:39:39.913Z,18.43
2019-02-23T03:42:08.799Z,15.73
2019-02-23T03:44:37.542Z,17.27
2019-02-23T03:47:06.280Z,18.00
2019-02-23T03:49:35.005Z,16.53
2019-02-23T03:52:04.044Z,19.23
2019-02-23T03:54:32.842Z,20.93
2019-02-23T03:57:01.641Z,16.60
2019-02-23T03:59:30.369Z,16.67
2019-02-23T04:01:59.134Z,18.83
2019-02-23T04:04:28.249Z,21.97
2019-02-23T04:06:56.979Z,17.77
2019-02-23T04:09:26.267Z,19.53
2019-02-23T04:11:54.993Z,17.57
2019-02-23T04:14:23.779Z,20.70
2019-02-23T04:16:52.799Z,22.00
2019-02-23T04:19:21.791Z,22.03
2019-02-23T04:21:50.782Z,21.97
2019-02-23T04:24:19.832Z,20.13
2019-02-23T04:26:49.101Z,20.23
2019-02-23T04:29:17.849Z,22.63
2019-02-23T04:31:46.850Z,19.63
2019-02-23T04:34:19.247Z,22.43
2019-02-23T04:36:48.587Z,20.87
2019-02-23T04:39:17.333Z,21.70
2019-02-23T04:41:46.454Z,23.30
2019-02-23T04:44:15.566Z,23.10
2019-02-23T04:46:44.302Z,20.50
2019-02-23T04:49:13.315Z,23.97
2019-02-23T04:51:42.072Z,23.37
2019-02-23T04:54:11.090Z,22.50
2019-02-23T04:56:39.878Z,21.73
2019-02-23T04:59:09.288Z,22.10
2019-02-23T05:01:38.043Z,23.03
2019-02-23T05:04:07.366Z,25.87
2019-02-23T05:06:36.465Z,24.70
2019-02-23T05:09:06.178Z,24.97
2019-02-23T05:11:34.932Z,25.60
2019-02-23T05:14:03.945Z,22.73
2019-02-23T05:16:33.068Z,26.37
2019-02-23T05:19:02.652Z,22.53
2019-02-23T05:21:31.388Z,23.80
2019-02-23T05:24:00.120Z,22.87
2019-02-23T05:26:29.045Z,24.70
2019-02-23T05:28:58.102Z,26.60
2019-02-23T05:31:26.873Z,25.00
2019-02-23T05:33:55.900Z,25.27
2019-02-23T05:36:24.644Z,23.10
2019-02-23T05:38:53.693Z,25.67
2019-02-23T05:41:22.764Z,23.17
2019-02-23T05:43:51.501Z,24.23
2019-02-23T05:46:20.865Z,26.37
2019-02-23T05:48:49.845Z,22.27
2019-02-23T05:51:18.600Z,25.40
2019-02-23T05:53:47.559Z,25.77
2019-02-23T05:56:16.491Z,24.40
2019-02-23T05:58:45.624Z,26.03
2019-02-23T06:01:14.717Z,23.13
2019-02-23T06:03:43.510Z,24.03
2019-02-23T06:06:12.279Z,22.80
2019-02-23T06:08:41.378Z,26.70
2019-02-23T06:11:10.118Z,26.07
2019-02-23T06:13:38.863Z,25.30
2019-02-23T06:16:07.614Z,23.20
2019-02-23T06:18:36.659Z,27.23
2019-02-23T06:21:05.438Z,24.40
2019-02-23T06:23:34.509Z,25.23
2019-02-23T06:26:03.316Z,24.17
2019-02-23T06:28:32.095Z,23.63
2019-02-23T06:31:00.836Z,24.03
2019-02-23T06:33:29.607Z,25.07
2019-02-23T06:35:58.680Z,24.87
2019-02-23T06:38:28.056Z,29.43
2019-02-23T06:40:57.074Z,27.30
2019-02-23T06:43:25.898Z,25.00
2019-02-23T06:45:54.711Z,27.47
2019-02-23T06:48:23.695Z,26.03
2019-02-23T06:50:52.723Z,28.67
2019-02-23T06:53:21.815Z,26.10
2019-02-23T06:55:50.914Z,28.03
2019-02-23T06:58:20.407Z,27.03
2019-02-23T07:00:49.140Z,25.37
2019-02-23T07:03:18.230Z,24.43
2019-02-23T07:05:47.279Z,27.77
2019-02-23T07:08:16.032Z,27.20
2019-02-23T07:10:44.778Z,23.83
2019-02-23T07:13:13.520Z,25.77
2019-02-23T07:15:42.319Z,27.50
2019-02-23T07:18:11.079Z,23.87
2019-02-23T07:20:44.143Z,25.67
2019-02-23T07:23:10.584Z,25.43
2019-02-23T07:25:39.630Z,25.17
2019-02-23T07:28:10.872Z,27.03
2019-02-23T07:30:39.201Z,23.10
2019-02-23T07:33:08.290Z,24.77
2019-02-23T07:35:37.036Z,25.13
2019-02-23T07:38:06.229Z,28.93
2019-02-23T07:40:35.315Z,25.70
2019-02-23T07:43:04.086Z,29.20
2019-02-23T07:45:33.406Z,30.73
2019-02-23T07:48:02.707Z,27.27
2019-02-23T07:50:31.437Z,27.33
2019-02-23T07:53:00.197Z,26.73
2019-02-23T07:55:29.191Z,30.90
2019-02-23T07:57:57.933Z,26.47
2019-02-23T08:00:26.693Z,26.97
2019-02-23T08:02:55.458Z,24.93
2019-02-23T08:05:24.181Z,26.83
2019-02-23T08:07:52.950Z,24.37
2019-02-23T08:10:22.026Z,25.83
2019-02-23T08:12:50.761Z,24.87
2019-02-23T08:15:19.503Z,26.50
2019-02-23T08:17:48.258Z,27.27
2019-02-23T08:20:17.010Z,29.40
2019-02-23T08:22:46.042Z,29.37
2019-02-23T08:25:15.157Z,27.13
2019-02-23T08:27:43.905Z,28.33
2019-02-23T08:30:13.250Z,23.40
2019-02-23T08:32:41.989Z,27.60
2019-02-23T08:35:11.018Z,26.57
2019-02-23T08:37:40.022Z,27.67
2019-02-23T08:40:10.005Z,34.43
2019-02-23T08:42:38.758Z,26.73
2019-02-23T08:45:08.356Z,28.27
2019-02-23T08:47:37.426Z,28.07
2019-02-23T08:50:08.434Z,27.60
2019-02-23T08:52:48.145Z,26.73
2019-02-23T08:55:08.918Z,30.33
2019-02-23T08:57:38.002Z,30.03
2019-02-23T09:00:09.877Z,29.37
2019-02-23T09:02:38.624Z,25.30
2019-02-23T09:05:08.854Z,26.83
2019-02-23T09:07:37.585Z,26.37
2019-02-23T09:10:07.574Z,26.87
2019-02-23T09:12:36.316Z,26.67
2019-02-23T09:15:05.691Z,23.33
2019-02-23T09:17:34.418Z,26.77
2019-02-23T09:20:03.908Z,24.47
2019-02-23T09:22:32.649Z,23.30
2019-02-23T09:25:02.532Z,23.73
2019-02-23T09:27:31.594Z,22.50
2019-02-23T09:30:00.669Z,24.27
2019-02-23T09:32:29.750Z,22.10
2019-02-23T09:34:58.755Z,23.27
2019-02-23T09:37:27.820Z,25.80
2019-02-23T09:39:56.906Z,24.50
2019-02-23T09:42:25.656Z,25.97
2019-02-23T09:44:54.422Z,24.17
2019-02-23T09:47:23.164Z,21.30
2019-02-23T09:49:51.905Z,26.30
2019-02-23T09:52:20.653Z,18.60
2019-02-23T09:54:50.053Z,20.67
2019-02-23T09:57:19.068Z,18.83
2019-02-23T09:59:47.830Z,20.37
2019-02-23T10:02:16.935Z,22.47
2019-02-23T10:04:45.709Z,22.90
2019-02-23T10:07:14.518Z,24.93
2019-02-23T10:09:43.535Z,20.43
2019-02-23T10:12:12.267Z,19.17
2019-02-23T10:14:41.014Z,23.87
2019-02-23T10:17:09.772Z,21.70
2019-02-23T10:19:38.937Z,20.40
2019-02-23T10:22:08.122Z,20.90
2019-02-23T10:24:37.126Z,18.53
2019-02-23T10:27:05.899Z,20.33
2019-02-23T10:29:34.660Z,20.80
2019-02-23T10:32:03.826Z,18.37
2019-02-23T10:34:32.904Z,23.80
2019-02-23T10:37:02.150Z,18.47
2019-02-23T10:39:31.511Z,21.53
2019-02-23T10:42:00.745Z,19.77
2019-02-23T10:44:29.788Z,20.00
2019-02-23T10:46:58.822Z,20.03
2019-02-23T10:49:27.804Z,21.90
2019-02-23T10:51:56.617Z,17.80
2019-02-23T10:54:25.961Z,16.90
2019-02-23T10:56:54.958Z,17.83
2019-02-23T10:59:23.962Z,19.40
2019-02-23T11:01:53.558Z,18.27
2019-02-23T11:04:22.561Z,19.57
2019-02-23T11:06:51.645Z,20.43
2019-02-23T11:09:31.753Z,19.83
2019-02-23T11:12:00.904Z,22.73
2019-02-23T11:14:29.651Z,21.17
2019-02-23T11:16:58.775Z,19.47
2019-02-23T11:19:27.889Z,17.70
2019-02-23T11:21:57.281Z,16.73
2019-02-23T11:24:26.277Z,19.00
2019-02-23T11:26:55.375Z,19.70
2019-02-23T11:29:24.139Z,19.13
2019-02-23T11:31:53.195Z,19.77
2019-02-23T11:34:21.958Z,18.90
2019-02-23T11:36:51.259Z,18.03
2019-02-23T11:39:20.242Z,18.67
2019-02-23T11:41:49.030Z,17.90
2019-02-23T11:44:17.784Z,15.93
2019-02-23T11:47:00.055Z,17.70
2019-02-23T11:49:17.740Z,18.60
2019-02-23T11:51:46.525Z,15.53
2019-02-23T11:54:15.725Z,16.97
2019-02-23T11:56:44.564Z,18.63
2019-02-23T11:59:13.309Z,16.63
2019-02-23T12:01:42.126Z,16.23
2019-02-23T12:04:10.968Z,16.73
2019-02-23T12:06:40.084Z,16.83
2019-02-23T12:09:09.157Z,16.93
2019-02-23T12:11:38.253Z,16.63
2019-02-23T12:14:07.264Z,17.67
2019-02-23T12:16:36.596Z,16.77
2019-02-23T12:19:05.650Z,17.47
2019-02-23T12:21:34.946Z,18.07
2019-02-23T12:24:06.312Z,14.43
2019-02-23T12:26:34.579Z,15.33
2019-02-23T12:29:03.586Z,16.43
2019-02-23T12:31:32.655Z,14.87
2019-02-23T12:34:01.920Z,19.80
2019-02-23T12:36:30.993Z,17.03
2019-02-23T12:38:59.963Z,13.17
2019-02-23T12:41:29.144Z,13.63
2019-02-23T12:43:58.130Z,14.87
2019-02-23T12:46:27.434Z,13.57
2019-02-23T12:48:56.730Z,15.47
2019-02-23T12:51:25.839Z,15.10
2019-02-23T12:53:54.932Z,13.67
2019-02-23T12:56:24.015Z,17.43
2019-02-23T12:58:53.016Z,15.50
2019-02-23T13:01:21.768Z,14.97
2019-02-23T13:03:50.509Z,15.27
2019-02-23T13:06:19.270Z,15.67
2019-02-23T13:09:13.581Z,16.60
2019-02-23T13:11:44.150Z,12.87
2019-02-23T13:14:29.191Z,17.40
2019-02-23T13:17:24.263Z,15.03
2019-02-23T13:20:36.699Z,17.50
2019-02-23T13:23:44.877Z,14.77
2019-02-23T13:26:46.956Z,13.33
2019-02-23T13:29:47.787Z,12.60
2019-02-23T13:32:38.750Z,14.83
2019-02-23T13:35:49.702Z,13.03
2019-02-23T13:39:00.022Z,18.77
2019-02-23T13:41:36.386Z,18.20
2019-02-23T13:44:48.039Z,16.97
2019-02-23T13:47:45.938Z,13.57
2019-02-23T13:50:29.643Z,17.30
2019-02-23T13:53:42.851Z,15.57
2019-02-23T13:56:40.321Z,14.33
2019-02-23T13:59:33.006Z,14.00
2019-02-23T14:02:22.552Z,15.17
2019-02-23T14:05:07.828Z,14.37
2019-02-23T14:07:49.748Z,16.33
2019-02-23T14:10:44.334Z,14.93
2019-02-23T14:13:51.219Z,20.00
2019-02-23T14:16:42.660Z,14.43
2019-02-23T14:19:47.996Z,15.43
2019-02-23T14:22:55.564Z,19.40
2019-02-23T14:26:30.218Z,17.07
2019-02-23T14:29:58.541Z,18.53
2019-02-23T14:32:51.961Z,18.83
2019-02-23T14:35:44.477Z,19.97
2019-02-23T14:39:04.547Z,18.20
2019-02-23T14:42:19.069Z,17.80
2019-02-23T14:45:37.065Z,16.77
2019-02-23T14:48:34.704Z,19.90
2019-02-23T14:51:31.029Z,18.70
2019-02-23T14:54:32.481Z,17.43
2019-02-23T14:57:38.875Z,17.80
2019-02-23T15:00:36.724Z,15.63
2019-02-23T15:03:43.614Z,15.60
2019-02-23T15:06:47.833Z,16.20
2019-02-23T15:09:53.903Z,16.33
2019-02-23T15:12:29.228Z,16.83
2019-02-23T15:15:14.033Z,16.53
2019-02-23T15:18:04.692Z,16.20
2019-02-23T15:21:03.477Z,17.30
2019-02-23T15:23:55.755Z,18.73
2019-02-23T15:26:54.065Z,20.70
2019-02-23T15:29:38.591Z,18.43
2019-02-23T15:32:28.491Z,19.37
2019-02-23T15:35:27.640Z,21.63
2019-02-23T15:38:34.117Z,16.37
2019-02-23T15:41:20.305Z,20.13
2019-02-23T15:44:13.038Z,17.27
2019-02-23T15:47:32.439Z,18.87
2019-02-23T15:50:12.646Z,21.50
2019-02-23T15:52:31.780Z,19.13
2019-02-23T15:55:00.853Z,18.63
2019-02-23T15:57:29.596Z,18.17
2019-02-23T15:59:59.564Z,17.53
2019-02-23T16:02:28.654Z,17.40
2019-02-23T16:04:57.732Z,21.60
2019-02-23T16:07:26.492Z,26.43
2019-02-23T16:09:55.521Z,25.27
2019-02-23T16:12:24.302Z,24.20
2019-02-23T16:14:53.719Z,21.90
2019-02-23T16:17:22.819Z,21.87
2019-02-23T16:19:52.478Z,25.27
2019-02-23T16:22:21.966Z,29.37
2019-02-23T16:24:52.144Z,21.93
2019-02-23T16:27:20.929Z,22.80
2019-02-23T16:29:49.692Z,19.70
2019-02-23T16:32:18.427Z,18.67
2019-02-23T16:34:47.611Z,22.53
2019-02-23T16:37:16.486Z,22.03
2019-02-23T16:39:45.645Z,22.60
2019-02-23T16:42:14.680Z,18.77
2019-02-23T16:44:43.787Z,20.27
2019-02-23T16:47:12.785Z,20.63
2019-02-23T16:49:41.527Z,21.30
2019-02-23T16:52:10.570Z,20.20
2019-02-23T16:54:39.875Z,20.70
2019-02-23T16:57:08.880Z,20.63
2019-02-23T16:59:37.685Z,21.40
2019-02-23T17:02:06.758Z,21.77
2019-02-23T17:04:35.828Z,23.80
2019-02-23T17:07:04.644Z,21.30
2019-02-23T17:09:34.108Z,28.10
2019-02-23T17:12:03.313Z,24.87
2019-02-23T17:14:32.068Z,24.03
2019-02-23T17:17:01.108Z,29.23
2019-02-23T17:19:30.267Z,26.33
2019-02-23T17:21:59.383Z,26.70
2019-02-23T17:24:28.482Z,26.23
2019-02-23T17:26:57.522Z,28.87
2019-02-23T17:29:26.570Z,26.97
2019-02-23T17:31:55.373Z,27.50
2019-02-23T17:34:24.436Z,27.13
2019-02-23T17:36:53.261Z,26.53
2019-02-23T17:39:22.018Z,23.90
2019-02-23T17:41:50.763Z,24.40
2019-02-23T17:44:19.597Z,26.63
2019-02-23T17:46:48.620Z,25.20
2019-02-23T17:49:18.209Z,31.70
2019-02-23T17:51:46.956Z,26.00
2019-02-23T17:54:16.449Z,27.50
2019-02-23T17:56:45.182Z,25.93
2019-02-23T17:59:14.478Z,36.23
2019-02-23T18:01:43.230Z,44.93
2019-02-23T18:04:11.986Z,40.33
2019-02-23T18:06:40.743Z,28.07
2019-02-23T18:09:09.805Z,25.60
2019-02-23T18:11:38.831Z,25.37
2019-02-23T18:14:07.596Z,24.17
2019-02-23T18:16:36.324Z,25.97
2019-02-23T18:19:05.088Z,28.90
2019-02-23T18:21:34.177Z,21.10
2019-02-23T18:24:02.924Z,25.13
2019-02-23T18:26:31.699Z,25.73
2019-02-23T18:29:00.748Z,25.20
2019-02-23T18:31:29.779Z,22.73
2019-02-23T18:33:58.590Z,28.10
2019-02-23T18:36:27.943Z,28.37
2019-02-23T18:38:57.328Z,23.93
2019-02-23T18:41:26.741Z,25.13
2019-02-23T18:43:55.779Z,26.77
2019-02-23T18:46:24.854Z,26.33
2019-02-23T18:48:53.627Z,26.13
2019-02-23T18:51:22.345Z,24.77
2019-02-23T18:53:51.707Z,28.60
2019-02-23T18:56:20.440Z,28.77
2019-02-23T18:58:49.197Z,26.77
2019-02-23T19:01:18.274Z,29.00
2019-02-23T19:03:47.014Z,25.47
2019-02-23T19:06:15.747Z,26.47
2019-02-23T19:08:44.486Z,22.77
2019-02-23T19:11:13.337Z,25.63
2019-02-23T19:13:42.060Z,22.57
2019-02-23T19:16:11.086Z,23.60
2019-02-23T19:18:40.126Z,24.90
2019-02-23T19:21:09.202Z,23.27
2019-02-23T19:23:38.280Z,22.40
2019-02-23T19:26:07.290Z,23.30
2019-02-23T19:28:43.052Z,23.20
2019-02-23T19:31:06.815Z,25.40
2019-02-23T19:33:35.564Z,23.67
2019-02-23T19:36:04.290Z,23.23
2019-02-23T19:38:33.038Z,25.07
2019-02-23T19:41:02.041Z,24.47
2019-02-23T19:43:30.798Z,25.17
2019-02-23T19:45:59.551Z,24.43
2019-02-23T19:48:28.304Z,24.03
2019-02-23T19:51:00.915Z,24.90
2019-02-23T19:53:29.983Z,26.53
2019-02-23T19:55:58.722Z,24.67
2019-02-23T19:58:27.856Z,27.70
2019-02-23T20:00:56.912Z,27.30
2019-02-23T20:03:25.978Z,26.50
2019-02-23T20:05:54.722Z,25.63
2019-02-23T20:08:23.458Z,26.03
2019-02-23T20:10:52.227Z,26.70
2019-02-23T20:13:21.346Z,26.93
2019-02-23T20:15:50.337Z,27.50
2019-02-23T20:18:19.097Z,27.60
2019-02-23T20:20:48.180Z,24.90
2019-02-23T20:23:17.264Z,25.60
2019-02-23T20:25:46.376Z,29.50
2019-02-23T20:28:15.493Z,27.47
2019-02-23T20:30:44.319Z,27.47
2019-02-23T20:33:13.067Z,32.47
2019-02-23T20:35:41.918Z,27.07
2019-02-23T20:38:11.032Z,27.47
2019-02-23T20:40:41.097Z,27.07
2019-02-23T20:43:10.576Z,31.23
2019-02-23T20:45:39.641Z,22.43
2019-02-23T20:48:08.621Z,28.57
2019-02-23T20:50:37.389Z,29.80
2019-02-23T20:53:06.517Z,29.87
2019-02-23T20:55:35.630Z,28.27
2019-02-23T20:58:04.719Z,29.30
2019-02-23T21:00:33.477Z,30.40
2019-02-23T21:03:02.914Z,26.23
2019-02-23T21:05:31.693Z,28.53
2019-02-23T21:08:00.822Z,30.17
2019-02-23T21:10:29.708Z,29.80
2019-02-23T21:12:58.532Z,32.53
2019-02-23T21:15:27.338Z,32.90
2019-02-23T21:17:56.112Z,31.10
2019-02-23T21:20:24.898Z,31.23
2019-02-23T21:22:53.793Z,31.07
2019-02-23T21:25:22.569Z,29.67
2019-02-23T21:27:51.313Z,30.33
2019-02-23T21:30:20.199Z,31.17
2019-02-23T21:32:49.295Z,26.47
2019-02-23T21:35:18.097Z,28.90
2019-02-23T21:37:46.862Z,26.00
2019-02-23T21:40:15.706Z,25.90
2019-02-23T21:42:44.470Z,24.73
2019-02-23T21:45:13.257Z,27.73
2019-02-23T21:47:42.082Z,29.33
2019-02-23T21:50:11.025Z,30.23
2019-02-23T21:52:39.818Z,28.20
2019-02-23T21:55:08.782Z,29.27
2019-02-23T21:57:37.878Z,26.67
2019-02-23T22:00:06.777Z,31.20
2019-02-23T22:02:35.602Z,30.87
2019-02-23T22:05:12.033Z,28.17
2019-02-23T22:07:35.222Z,31.00
2019-02-23T22:10:04.318Z,29.77
2019-02-23T22:12:33.473Z,35.07
2019-02-23T22:15:02.584Z,33.23
2019-02-23T22:17:32.656Z,35.63
2019-02-23T22:20:01.469Z,32.60
2019-02-23T22:22:30.249Z,33.17
2019-02-23T22:24:59.048Z,34.33
2019-02-23T22:27:31.302Z,32.13
2019-02-23T22:29:58.964Z,35.13
2019-02-23T22:32:27.771Z,33.80
2019-02-23T22:34:56.624Z,38.27
2019-02-23T22:37:25.396Z,37.50
2019-02-23T22:39:54.262Z,41.23
2019-02-23T22:42:23.040Z,41.87
2019-02-23T22:44:51.806Z,32.83
2019-02-23T22:47:20.915Z,35.70
2019-02-23T22:49:50.029Z,37.43
2019-02-23T22:52:18.922Z,35.17
2019-02-23T22:54:47.970Z,41.93
2019-02-23T22:57:16.765Z,51.30
2019-02-23T22:59:45.843Z,49.03
2019-02-23T23:02:14.702Z,41.17
2019-02-23T23:04:43.758Z,35.80
2019-02-23T23:07:12.574Z,34.30
2019-02-23T23:09:41.420Z,35.73
2019-02-23T23:12:10.594Z,32.57
2019-02-23T23:14:39.429Z,35.87
2019-02-23T23:17:08.256Z,31.80
2019-02-23T23:19:37.114Z,28.73
2019-02-23T23:22:05.866Z,31.70
2019-02-23T23:24:34.627Z,29.70
2019-02-23T23:27:03.504Z,29.77
2019-02-23T23:29:32.550Z,30.60
2019-02-23T23:32:01.303Z,28.20
2019-02-23T23:34:30.311Z,31.77
2019-02-23T23:36:59.347Z,25.57
2019-02-23T23:39:28.170Z,30.83
2019-02-23T23:41:56.916Z,27.23
2019-02-23T23:44:25.643Z,25.37
2019-02-23T23:46:54.395Z,28.87
2019-02-23T23:49:23.466Z,27.27
2019-02-23T23:51:52.553Z,29.17
2019-02-23T23:54:21.648Z,26.13
2019-02-23T23:56:50.418Z,25.23
2019-02-23T23:59:19.508Z,25.50
